Thompsonville, Michigan
Current Conditions -  °F | °C
As of 8:14 PM on Tuesday 27 Jan 2015 (Local Time) from KFKS Reporting Station
Clear Clear  
Wind Chill: 15°   Ceiling: Unl
Heat Index: 15°   Visibility: 10mi
Dew Point: 10°   Wind: 0mph
Humidity: 82%   Direction: NA
Pressure: 30.25"   Gusts: NA
Location:  44.52°N, 85.94°W
Report Text: KFKS 280114Z AUTO 00000KT 10SM CLR M10/M12 A3025 RMK AO2 T10961121
Loading
Personal Weather Stations






























Interactive Weather Map New forecast layout! Learn more

10-Day Weather Forecast

Advertisements
Track Severe Weather on mobile